Time;durP1;ratioP1;P1;durP2;ratioP2;P2;SDS_P1;SDS_P2;PMS_P1;PMS_P2;Temp;Humidity;BMP_temperature;BMP_pressure;BME280_temperature;BME280_humidity;BME280_pressure;Samples;Min_cycle;Max_cycle;Signal;HPM_P1;HPM_P2
2021/07/26 00:00:05;;;;;;;30.87;27.67;;;20.30;99.90;;;;;;5023304;28;20440;-84
2021/07/26 00:02:31;;;;;;;35.33;30.30;;;20.20;99.90;;;;;;5022372;28;20475;-84
2021/07/26 00:04:58;;;;;;;34.23;28.77;;;20.20;99.90;;;;;;5022148;28;20444;-84
2021/07/26 00:07:24;;;;;;;38.78;30.85;;;20.20;99.90;;;;;;5022339;28;20587;-83
2021/07/26 00:09:52;;;;;;;34.00;30.30;;;20.20;99.90;;;;;;5022971;28;20209;-85
2021/07/26 00:12:19;;;;;;;36.00;28.60;;;20.20;99.90;;;;;;5031243;28;20447;-82
2021/07/26 00:14:45;;;;;;;35.70;31.93;;;20.20;99.90;;;;;;5038756;28;20464;-82
2021/07/26 00:17:12;;;;;;;37.87;32.27;;;20.20;99.90;;;;;;5038164;28;20464;-83
2021/07/26 00:19:39;;;;;;;35.97;31.90;;;20.20;99.90;;;;;;5036127;28;20478;-84
2021/07/26 00:22:06;;;;;;;35.80;32.03;;;20.20;99.90;;;;;;5025436;28;20448;-84
2021/07/26 00:24:32;;;;;;;33.73;29.80;;;20.20;99.90;;;;;;5025399;28;20451;-85
2021/07/26 00:27:00;;;;;;;31.27;27.87;;;20.20;99.90;;;;;;5024217;28;20522;-85
2021/07/26 00:29:27;;;;;;;36.10;29.13;;;20.20;99.90;;;;;;5022085;28;20451;-85
2021/07/26 00:31:54;;;;;;;33.83;29.10;;;20.20;99.90;;;;;;5023353;28;20448;-84
2021/07/26 00:34:25;;;;;;;32.10;28.60;;;20.30;99.90;;;;;;5021324;28;20977;-85
2021/07/26 00:36:53;;;;;;;31.23;27.90;;;20.20;99.90;;;;;;5021162;28;20471;-85
2021/07/26 00:39:20;;;;;;;37.00;30.33;;;20.20;99.90;;;;;;5022034;28;20462;-85
2021/07/26 00:41:48;;;;;;;33.40;29.87;;;20.20;99.90;;;;;;5022092;28;20454;-82
2021/07/26 00:44:17;;;;;;;41.80;33.97;;;20.20;99.90;;;;;;5026811;28;20777;-83
2021/07/26 00:46:44;;;;;;;34.60;29.20;;;20.20;99.90;;;;;;5035541;28;20460;-83
2021/07/26 00:49:12;;;;;;;36.37;29.90;;;20.20;99.90;;;;;;5033868;28;20455;-83
2021/07/26 00:51:41;;;;;;;32.03;28.40;;;20.20;99.90;;;;;;5024671;28;20792;-83
2021/07/26 00:54:08;;;;;;;33.43;28.07;;;20.30;99.90;;;;;;5024488;28;20458;-82
2021/07/26 00:56:36;;;;;;;35.70;28.97;;;20.20;99.90;;;;;;5022230;28;20464;-83
2021/07/26 00:59:03;;;;;;;31.13;27.87;;;20.20;99.90;;;;;;5021151;28;20974;-83
2021/07/26 01:01:31;;;;;;;30.53;27.27;;;20.20;99.90;;;;;;5021757;28;20443;-83
2021/07/26 01:03:57;;;;;;;33.03;29.07;;;20.20;99.90;;;;;;5021614;28;20452;-83
2021/07/26 01:06:24;;;;;;;35.47;31.77;;;20.20;99.90;;;;;;5021379;28;20468;-84
2021/07/26 01:08:51;;;;;;;32.00;28.57;;;20.20;99.90;;;;;;5021934;28;20481;-84
2021/07/26 01:11:17;;;;;;;30.33;27.17;;;20.20;99.90;;;;;;5021745;28;20476;-84
2021/07/26 01:13:44;;;;;;;29.20;26.10;;;20.20;99.90;;;;;;5022277;28;20475;-84
2021/07/26 01:16:11;;;;;;;33.23;29.63;;;20.20;99.90;;;;;;5022079;28;20474;-84
2021/07/26 01:18:39;;;;;;;33.30;28.77;;;20.20;99.90;;;;;;5022942;28;20448;-84
2021/07/26 01:21:08;;;;;;;32.43;28.50;;;20.10;99.90;;;;;;5021899;28;20880;-84
2021/07/26 01:23:37;;;;;;;33.43;29.47;;;20.20;99.90;;;;;;5021397;28;20861;-84
2021/07/26 01:26:05;;;;;;;38.87;30.13;;;20.10;99.90;;;;;;5020827;28;20495;-84
2021/07/26 01:28:34;;;;;;;33.40;29.80;;;20.20;99.90;;;;;;5022096;28;20527;-82
2021/07/26 01:31:01;;;;;;;32.80;29.30;;;20.10;99.90;;;;;;5026127;28;20501;-83
2021/07/26 01:33:28;;;;;;;35.33;30.67;;;20.10;99.90;;;;;;5033200;28;20911;-83
2021/07/26 01:35:55;;;;;;;37.70;31.13;;;20.10;99.90;;;;;;5018940;28;20480;-84
2021/07/26 01:38:23;;;;;;;35.30;30.80;;;20.00;99.90;;;;;;5025239;28;20456;-83
2021/07/26 01:40:55;;;;;;;35.57;31.73;;;20.00;99.90;;;;;;5024321;28;20514;-83
2021/07/26 01:43:24;;;;;;;34.77;30.70;;;20.00;99.90;;;;;;5017821;28;20452;-83
2021/07/26 01:45:59;;;;;;;37.47;31.97;;;19.90;99.90;;;;;;5018145;28;20551;-83
2021/07/26 01:48:30;;;;;;;36.17;31.40;;;20.00;99.90;;;;;;5018879;28;20475;-84
2021/07/26 01:51:01;;;;;;;37.43;30.47;;;19.90;99.90;;;;;;5020519;28;20435;-84
2021/07/26 01:53:29;;;;;;;39.03;31.43;;;20.00;99.90;;;;;;5021581;28;20432;-84
2021/07/26 01:55:57;;;;;;;38.40;32.57;;;20.00;99.90;;;;;;5020706;28;20492;-84
2021/07/26 01:58:24;;;;;;;37.17;33.00;;;19.90;99.90;;;;;;5038602;28;20451;-83
2021/07/26 02:00:51;;;;;;;37.70;30.73;;;19.90;99.90;;;;;;5034982;28;20474;-83
2021/07/26 02:03:17;;;;;;;41.23;31.10;;;19.80;99.90;;;;;;5036553;28;20435;-83
2021/07/26 02:05:44;;;;;;;34.93;31.30;;;19.80;99.90;;;;;;5025694;28;20467;-84
2021/07/26 02:08:10;;;;;;;35.50;31.40;;;19.90;99.90;;;;;;5020365;28;20522;-84
2021/07/26 02:10:39;;;;;;;36.20;31.37;;;19.90;99.90;;;;;;5019599;28;20504;-84
2021/07/26 02:13:05;;;;;;;33.23;29.70;;;19.90;99.90;;;;;;5021253;28;20448;-84
2021/07/26 02:15:32;;;;;;;37.20;32.03;;;20.10;99.90;;;;;;5021286;28;20426;-84
2021/07/26 02:17:58;;;;;;;38.60;31.73;;;20.00;99.90;;;;;;5020311;28;20444;-84
2021/07/26 02:20:25;;;;;;;35.90;30.47;;;19.90;99.90;;;;;;5020110;28;20483;-84
2021/07/26 02:22:51;;;;;;;36.97;31.63;;;19.90;99.90;;;;;;5019956;28;20459;-84
2021/07/26 02:25:19;;;;;;;34.80;29.03;;;19.90;99.90;;;;;;5018829;28;20448;-84
2021/07/26 02:27:47;;;;;;;31.00;27.80;;;19.80;99.90;;;;;;5020754;28;20519;-84
2021/07/26 02:30:14;;;;;;;37.10;30.87;;;19.80;99.90;;;;;;5018989;28;20892;-84
2021/07/26 02:32:41;;;;;;;36.20;29.23;;;19.90;99.90;;;;;;5019766;28;20824;-84
2021/07/26 02:35:09;;;;;;;35.30;31.40;;;19.90;99.90;;;;;;5019570;28;20497;-84
2021/07/26 02:37:36;;;;;;;33.55;28.63;;;19.90;99.90;;;;;;5019571;28;20501;-84
2021/07/26 02:40:03;;;;;;;31.33;27.63;;;19.90;99.90;;;;;;5020135;28;20579;-84
2021/07/26 02:42:30;;;;;;;37.47;33.53;;;19.90;99.90;;;;;;5019711;28;20456;-84
2021/07/26 02:45:05;;;;;;;34.13;30.60;;;20.00;99.90;;;;;;5019560;28;20452;-84
2021/07/26 02:47:32;;;;;;;35.60;30.20;;;20.00;99.90;;;;;;5020008;28;20487;-84
2021/07/26 02:49:58;;;;;;;37.47;31.40;;;20.00;99.90;;;;;;5020724;28;20486;-84
2021/07/26 02:52:25;;;;;;;31.27;27.90;;;20.00;99.90;;;;;;5020929;28;20479;-84
2021/07/26 02:54:51;;;;;;;34.27;29.33;;;20.00;99.90;;;;;;5018477;28;20465;-84
2021/07/26 02:57:18;;;;;;;37.83;28.97;;;20.00;99.90;;;;;;5019468;28;20500;-84
2021/07/26 02:59:44;;;;;;;36.27;32.37;;;20.00;99.90;;;;;;5019984;28;20479;-84
2021/07/26 03:02:12;;;;;;;33.77;30.17;;;19.90;99.90;;;;;;5023129;28;20448;-84
2021/07/26 03:04:39;;;;;;;43.40;31.83;;;19.90;99.90;;;;;;5032734;28;20455;-83
2021/07/26 03:07:05;;;;;;;33.00;29.57;;;19.90;99.90;;;;;;5028294;28;20480;-83
2021/07/26 03:09:32;;;;;;;35.20;30.70;;;19.90;99.90;;;;;;5032707;28;20447;-83
2021/07/26 03:11:58;;;;;;;33.13;29.57;;;19.90;99.90;;;;;;5032027;28;20444;-84
2021/07/26 03:14:25;;;;;;;34.33;30.67;;;19.90;99.90;;;;;;5031075;28;20450;-83
2021/07/26 03:16:51;;;;;;;34.87;31.27;;;19.90;99.90;;;;;;5033706;28;20232;-83
2021/07/26 03:19:20;;;;;;;33.70;30.30;;;19.90;99.90;;;;;;5031014;28;20443;-84
2021/07/26 03:22:10;;;;;;;35.37;31.73;;;19.90;99.90;;;;;;5031067;28;20448;-85
2021/07/26 03:24:37;;;;;;;36.07;32.20;;;19.90;99.90;;;;;;5019937;28;20839;-84
2021/07/26 03:27:03;;;;;;;37.07;30.90;;;19.90;99.90;;;;;;5036746;28;20523;-83
2021/07/26 03:29:30;;;;;;;35.17;31.30;;;19.80;99.90;;;;;;5028220;28;20447;-83
2021/07/26 03:31:57;;;;;;;39.97;32.67;;;19.80;99.90;;;;;;5022599;28;20468;-83
2021/07/26 03:34:25;;;;;;;33.73;30.10;;;19.80;99.90;;;;;;5022739;28;20480;-83
2021/07/26 03:36:52;;;;;;;36.17;32.23;;;19.70;99.90;;;;;;5023586;28;20503;-83
2021/07/26 03:39:18;;;;;;;37.37;33.30;;;19.80;99.90;;;;;;5022326;28;20451;-84
2021/07/26 03:41:45;;;;;;;34.07;30.47;;;19.80;99.90;;;;;;5023206;28;20502;-84
2021/07/26 03:44:11;;;;;;;35.27;31.47;;;19.80;99.90;;;;;;5029568;28;20428;-82
2021/07/26 03:46:38;;;;;;;38.20;34.23;;;19.80;99.90;;;;;;5029285;28;20455;-83
2021/07/26 03:49:05;;;;;;;38.67;33.80;;;19.80;99.90;;;;;;5039001;28;20463;-83
2021/07/26 03:51:33;;;;;;;36.97;32.97;;;19.80;99.90;;;;;;5030293;28;20448;-84
2021/07/26 03:53:59;;;;;;;34.77;31.17;;;19.80;99.90;;;;;;5020107;28;20433;-84
2021/07/26 03:56:26;;;;;;;35.70;31.97;;;19.80;99.90;;;;;;5020107;28;20472;-84
2021/07/26 03:58:52;;;;;;;36.30;31.80;;;19.70;99.90;;;;;;5028032;28;20448;-82
2021/07/26 04:01:20;;;;;;;39.73;34.40;;;19.70;99.90;;;;;;5038130;28;20437;-84
2021/07/26 04:03:47;;;;;;;36.30;32.43;;;19.90;99.90;;;;;;5025635;28;20458;-83
2021/07/26 04:06:16;;;;;;;36.13;32.43;;;19.70;99.90;;;;;;5027684;28;20499;-84
2021/07/26 04:08:47;;;;;;;35.50;31.80;;;19.70;99.90;;;;;;5035353;28;20474;-84
2021/07/26 04:11:15;;;;;;;38.20;33.80;;;19.70;99.90;;;;;;5039060;28;20459;-84
2021/07/26 04:13:42;;;;;;;37.30;33.37;;;19.70;99.90;;;;;;5038072;28;20456;-83
2021/07/26 04:16:08;;;;;;;43.93;32.13;;;19.70;99.90;;;;;;5025664;28;20507;-83
2021/07/26 04:18:35;;;;;;;35.20;31.43;;;19.80;99.90;;;;;;5022666;28;20471;-84
2021/07/26 04:21:09;;;;;;;34.57;30.97;;;19.80;99.90;;;;;;5022390;28;20440;-84
2021/07/26 04:23:35;;;;;;;33.37;29.80;;;19.80;99.90;;;;;;5023209;28;20430;-84
2021/07/26 04:26:03;;;;;;;34.03;30.60;;;19.90;99.90;;;;;;5021716;28;20531;-84
2021/07/26 04:28:30;;;;;;;35.90;31.03;;;19.90;99.90;;;;;;5021986;28;20487;-85
2021/07/26 04:30:56;;;;;;;34.10;30.50;;;19.90;99.90;;;;;;5022581;28;20478;-84
2021/07/26 04:33:23;;;;;;;35.03;30.23;;;20.00;99.90;;;;;;5022054;28;20491;-84
2021/07/26 04:35:50;;;;;;;32.13;28.90;;;20.00;99.90;;;;;;5021556;28;20876;-84
2021/07/26 04:38:16;;;;;;;36.20;30.37;;;20.10;99.90;;;;;;5021473;28;20467;-84
2021/07/26 04:40:43;;;;;;;34.07;30.43;;;20.10;99.90;;;;;;5022036;28;20447;-84
2021/07/26 04:43:11;;;;;;;36.23;32.60;;;20.20;99.90;;;;;;5022389;28;20506;-84
2021/07/26 04:45:37;;;;;;;32.40;29.23;;;20.60;99.90;;;;;;5020967;28;20487;-84
2021/07/26 04:48:04;;;;;;;33.85;30.33;;;20.20;99.90;;;;;;5023656;28;20998;-84
2021/07/26 04:50:31;;;;;;;38.53;30.27;;;20.20;99.90;;;;;;5021147;28;20209;-84
2021/07/26 04:52:57;;;;;;;34.10;30.40;;;20.20;99.90;;;;;;5034360;28;20436;-84
2021/07/26 04:55:24;;;;;;;36.73;31.33;;;20.30;99.90;;;;;;5039487;28;20459;-82
2021/07/26 04:57:52;;;;;;;33.00;29.80;;;20.40;99.90;;;;;;5039350;28;20482;-84
2021/07/26 05:00:20;;;;;;;32.50;28.60;;;20.40;99.90;;;;;;5030385;28;20455;-84
2021/07/26 05:02:46;;;;;;;36.70;33.10;;;20.50;99.90;;;;;;5023486;28;20819;-84
2021/07/26 05:05:13;;;;;;;35.53;31.70;;;20.50;99.90;;;;;;5022025;28;20938;-84
2021/07/26 05:07:42;;;;;;;34.23;30.73;;;20.30;99.90;;;;;;5022799;28;20464;-84
2021/07/26 05:10:11;;;;;;;34.70;30.23;;;20.50;99.90;;;;;;5021427;28;20480;-84
2021/07/26 05:12:39;;;;;;;33.80;30.40;;;20.60;99.90;;;;;;5021862;28;20506;-84
2021/07/26 05:15:06;;;;;;;32.83;29.33;;;20.60;99.90;;;;;;5021310;28;20451;-84
2021/07/26 05:17:34;;;;;;;33.57;30.07;;;20.60;99.90;;;;;;5021081;28;20503;-84
2021/07/26 05:20:01;;;;;;;29.43;26.50;;;20.60;99.90;;;;;;5020360;28;20479;-84
2021/07/26 05:22:27;;;;;;;33.07;29.53;;;20.60;99.90;;;;;;5021574;28;20470;-84
2021/07/26 05:24:54;;;;;;;33.57;30.07;;;20.70;99.90;;;;;;5020975;28;20441;-84
2021/07/26 05:27:21;;;;;;;34.47;30.87;;;20.70;99.90;;;;;;5026799;28;20468;-83
2021/07/26 05:29:48;;;;;;;32.87;29.50;;;20.70;99.90;;;;;;5036953;28;20483;-83
2021/07/26 05:32:15;;;;;;;33.47;29.87;;;20.70;99.90;;;;;;5030138;28;20563;-83
2021/07/26 05:34:45;;;;;;;33.33;29.90;;;20.80;99.90;;;;;;5036476;28;20440;-82
2021/07/26 05:37:12;;;;;;;33.47;29.77;;;20.80;99.90;;;;;;5058812;22;20522;-80
2021/07/26 05:39:38;;;;;;;32.40;28.30;;;20.90;99.90;;;;;;5037139;28;20446;-80
2021/07/26 05:42:06;;;;;;;30.63;27.57;;;20.90;99.90;;;;;;5037318;28;20486;-80
2021/07/26 05:44:33;;;;;;;35.63;31.83;;;20.90;99.90;;;;;;5036500;28;20505;-80
2021/07/26 05:46:59;;;;;;;35.73;31.47;;;20.90;99.90;;;;;;5039842;28;20467;-80
2021/07/26 05:49:26;;;;;;;36.20;32.20;;;20.90;99.90;;;;;;5040342;28;21092;-80
2021/07/26 05:51:54;;;;;;;35.90;32.03;;;20.90;99.90;;;;;;5038468;28;20462;-80
2021/07/26 05:54:20;;;;;;;33.23;29.83;;;20.80;99.90;;;;;;5037154;28;20487;-80
2021/07/26 05:56:48;;;;;;;32.67;29.17;;;20.80;99.90;;;;;;5037133;28;20470;-80
2021/07/26 05:59:16;;;;;;;31.77;28.37;;;20.80;99.90;;;;;;5036726;28;20200;-80
2021/07/26 06:01:48;;;;;;;32.33;28.27;;;20.80;99.90;;;;;;5036414;28;20458;-80
2021/07/26 06:04:17;;;;;;;33.67;30.10;;;20.80;99.90;;;;;;5036944;28;20436;-80
2021/07/26 06:06:46;;;;;;;36.67;32.77;;;20.80;99.90;;;;;;5037365;28;20467;-80
2021/07/26 06:09:14;;;;;;;35.37;31.30;;;20.90;99.90;;;;;;5038556;28;20479;-80
2021/07/26 06:11:42;;;;;;;38.67;34.50;;;20.90;99.90;;;;;;5037789;28;20497;-80
2021/07/26 06:14:09;;;;;;;38.60;34.50;;;20.90;99.90;;;;;;5038421;28;20945;-81
2021/07/26 06:16:41;;;;;;;38.57;34.57;;;20.90;99.90;;;;;;5049620;28;20900;-80
2021/07/26 06:19:09;;;;;;;37.17;33.37;;;21.00;99.90;;;;;;5041469;28;20522;-80
2021/07/26 06:21:41;;;;;;;34.50;30.90;;;21.00;99.90;;;;;;5038141;28;20447;-80
2021/07/26 06:24:07;;;;;;;39.97;32.00;;;21.10;99.90;;;;;;5037359;28;20926;-80
2021/07/26 06:26:35;;;;;;;39.33;33.10;;;21.10;99.90;;;;;;5037208;28;20508;-80
2021/07/26 06:29:02;;;;;;;39.47;33.43;;;21.10;99.90;;;;;;5037054;28;20475;-80
2021/07/26 06:31:28;;;;;;;36.20;30.27;;;21.20;99.90;;;;;;5036085;28;20987;-80
2021/07/26 06:33:55;;;;;;;33.07;28.50;;;21.30;99.90;;;;;;5036503;28;20447;-80
2021/07/26 06:36:22;;;;;;;28.83;25.83;;;21.30;99.90;;;;;;5036815;28;20475;-81
2021/07/26 06:38:48;;;;;;;28.80;25.70;;;21.30;99.90;;;;;;5037089;28;20429;-80
2021/07/26 06:41:15;;;;;;;27.90;23.27;;;;;;;;;;5037752;28;20453;-81
2021/07/26 06:43:43;;;;;;;25.53;22.83;;;21.40;99.90;;;;;;5037647;28;20497;-81
2021/07/26 06:46:10;;;;;;;24.20;21.80;;;21.50;99.90;;;;;;5038751;28;20475;-81
2021/07/26 06:48:36;;;;;;;26.00;23.20;;;21.60;99.90;;;;;;5039051;28;20537;-81
2021/07/26 06:51:04;;;;;;;24.27;21.77;;;21.60;99.90;;;;;;5036207;28;20939;-81
2021/07/26 06:53:30;;;;;;;21.97;19.67;;;21.60;99.90;;;;;;5036071;28;20454;-80
2021/07/26 06:55:57;;;;;;;25.10;22.03;;;22.10;99.90;;;;;;5036368;28;20496;-80
2021/07/26 06:58:23;;;;;;;28.73;25.87;;;21.70;99.90;;;;;;5038418;28;20485;-80
2021/07/26 07:00:51;;;;;;;28.23;25.30;;;21.70;99.90;;;;;;5040109;28;20482;-80
2021/07/26 07:03:18;;;;;;;27.30;24.70;;;21.70;99.90;;;;;;5054113;28;20473;-79
2021/07/26 07:05:44;;;;;;;25.60;23.10;;;21.80;99.90;;;;;;5055922;28;20465;-80
2021/07/26 07:08:11;;;;;;;27.87;24.87;;;21.80;99.90;;;;;;5045730;28;20447;-80
2021/07/26 07:10:38;;;;;;;25.63;23.03;;;21.90;99.90;;;;;;5040427;28;20451;-80
2021/07/26 07:13:04;;;;;;;27.37;24.40;;;21.90;99.90;;;;;;5041219;28;20482;-80
2021/07/26 07:15:32;;;;;;;26.20;23.50;;;22.00;99.90;;;;;;5043428;28;20446;-81
2021/07/26 07:18:00;;;;;;;27.40;23.43;;;22.10;99.90;;;;;;5047048;28;20513;-81
2021/07/26 07:20:27;;;;;;;25.97;23.30;;;22.20;99.90;;;;;;5046904;28;20786;-81
2021/07/26 07:22:54;;;;;;;23.23;20.93;;;22.30;99.90;;;;;;5053944;28;20447;-80
2021/07/26 07:25:21;;;;;;;21.90;19.70;;;22.30;99.90;;;;;;5055646;28;20427;-81
2021/07/26 07:27:48;;;;;;;22.83;20.43;;;22.40;99.90;;;;;;5054195;28;20459;-81
2021/07/26 07:30:16;;;;;;;24.00;21.60;;;22.40;99.90;;;;;;5055123;28;20489;-81
2021/07/26 07:32:42;;;;;;;21.83;19.60;;;22.50;99.90;;;;;;5048219;28;20964;-79
2021/07/26 07:35:11;;;;;;;22.80;20.70;;;22.50;99.90;;;;;;5047718;28;20459;-79
2021/07/26 07:37:39;;;;;;;21.60;19.43;;;22.60;99.90;;;;;;5050251;28;20482;-80
2021/07/26 07:40:07;;;;;;;23.38;20.83;;;22.60;99.90;;;;;;5049727;28;20533;-80
2021/07/26 07:42:33;;;;;;;20.90;18.90;;;22.60;99.90;;;;;;5050537;28;20204;-80
2021/07/26 07:45:00;;;;;;;18.23;16.33;;;22.60;99.90;;;;;;5051086;28;20454;-79
2021/07/26 07:47:27;;;;;;;21.53;19.57;;;22.80;99.90;;;;;;5053415;28;20451;-80
2021/07/26 07:49:53;;;;;;;20.03;18.13;;;22.70;99.90;;;;;;5055213;28;20494;-81
2021/07/26 07:52:21;;;;;;;19.00;17.20;;;22.80;99.90;;;;;;5054767;28;20442;-80
2021/07/26 07:54:48;;;;;;;19.00;17.10;;;22.90;99.90;;;;;;5053892;28;20443;-80
2021/07/26 07:57:16;;;;;;;19.47;17.40;;;22.90;99.90;;;;;;5048875;28;20995;-81
2021/07/26 07:59:44;;;;;;;20.33;17.93;;;23.00;99.90;;;;;;5047946;28;20454;-81
2021/07/26 08:02:11;;;;;;;18.80;17.00;;;23.00;99.90;;;;;;5046383;28;20451;-81
2021/07/26 08:04:40;;;;;;;19.63;17.70;;;23.00;99.90;;;;;;5044887;28;20451;-81
2021/07/26 08:07:06;;;;;;;19.27;17.10;;;23.10;99.90;;;;;;5047006;28;20493;-81
2021/07/26 08:09:34;;;;;;;21.80;19.33;;;23.10;99.90;;;;;;5048392;28;20509;-79
2021/07/26 08:12:01;;;;;;;19.80;17.80;;;23.10;99.90;;;;;;5045852;28;20443;-78
2021/07/26 08:14:27;;;;;;;19.97;18.13;;;23.20;99.90;;;;;;5049446;28;20447;-79
2021/07/26 08:16:54;;;;;;;18.37;16.63;;;23.20;99.90;;;;;;5048884;28;20471;-80
2021/07/26 08:19:20;;;;;;;19.20;17.30;;;23.30;99.90;;;;;;5049174;28;20443;-79
2021/07/26 08:21:47;;;;;;;20.13;18.07;;;23.40;99.90;;;;;;5053271;28;20444;-80
2021/07/26 08:24:13;;;;;;;19.30;17.37;;;23.50;99.90;;;;;;5055221;28;20457;-80
2021/07/26 08:26:41;;;;;;;20.23;18.17;;;23.60;99.90;;;;;;5055871;28;20540;-80
2021/07/26 08:29:08;;;;;;;20.43;18.20;;;23.60;99.90;;;;;;5056173;28;20525;-80
2021/07/26 08:31:34;;;;;;;18.37;16.57;;;23.70;99.90;;;;;;5053110;28;20444;-81
2021/07/26 08:34:01;;;;;;;19.87;17.97;;;23.70;99.90;;;;;;5052753;28;20443;-81
2021/07/26 08:36:28;;;;;;;18.27;16.57;;;23.70;99.90;;;;;;5051577;28;20478;-81
2021/07/26 08:38:54;;;;;;;21.10;17.57;;;23.80;99.90;;;;;;5041651;28;20852;-81
2021/07/26 08:41:21;;;;;;;19.93;18.03;;;23.90;99.90;;;;;;5038785;28;20447;-79
2021/07/26 08:43:49;;;;;;;23.00;19.40;;;24.00;99.90;;;;;;5039766;28;20450;-80
2021/07/26 08:46:18;;;;;;;18.97;17.03;;;24.10;99.90;;;;;;5041459;28;20544;-80
2021/07/26 08:48:45;;;;;;;18.83;16.93;;;24.10;99.90;;;;;;5041623;28;20511;-81
2021/07/26 08:51:15;;;;;;;20.07;17.70;;;24.20;99.90;;;;;;5040941;28;20447;-80
2021/07/26 08:53:43;;;;;;;21.07;19.03;;;24.20;99.90;;;;;;5044344;28;20542;-80
2021/07/26 08:56:10;;;;;;;19.77;17.80;;;24.20;99.90;;;;;;5041448;28;20530;-80
2021/07/26 08:58:37;;;;;;;20.17;18.27;;;24.20;99.90;;;;;;5042135;28;20474;-81
2021/07/26 09:01:07;;;;;;;17.60;15.80;;;24.20;99.90;;;;;;5040560;28;20450;-80
2021/07/26 09:03:33;;;;;;;16.53;15.00;;;24.30;99.90;;;;;;5040503;28;20447;-81
2021/07/26 09:06:00;;;;;;;18.97;17.07;;;24.40;99.90;;;;;;5044162;28;20435;-82
2021/07/26 09:08:32;;;;;;;19.43;17.53;;;24.80;99.90;;;;;;5044789;28;20443;-82
2021/07/26 09:11:02;;;;;;;21.27;18.00;;;24.60;99.90;;;;;;5039747;28;20467;-82
2021/07/26 09:13:38;;;;;;;17.07;14.97;;;24.60;99.90;;;;;;5040797;28;20453;-82
2021/07/26 09:16:19;;;;;;;17.87;16.10;;;25.00;99.90;;;;;;5039083;28;20482;-82
2021/07/26 09:18:47;;;;;;;17.90;16.10;;;24.70;99.90;;;;;;5038816;28;20439;-81
2021/07/26 09:21:14;;;;;;;16.80;15.10;;;24.70;99.90;;;;;;5037506;28;20818;-81
2021/07/26 09:24:08;;;;;;;18.23;16.40;;;24.80;99.90;;;;;;5038129;28;20444;-81
2021/07/26 09:26:34;;;;;;;17.67;15.67;;;24.80;99.90;;;;;;5002659;28;20478;-81
2021/07/26 09:29:21;;;;;;;19.67;17.87;;;24.80;99.90;;;;;;5038445;28;20447;-81
2021/07/26 09:32:00;;;;;;;17.33;15.53;;;24.80;99.90;;;;;;5037541;28;20474;-81
2021/07/26 09:34:27;;;;;;;17.80;15.87;;;24.80;99.90;;;;;;5044010;28;20434;-81
2021/07/26 09:36:54;;;;;;;17.77;16.07;;;24.90;99.90;;;;;;5054557;28;20475;-81
2021/07/26 09:39:26;;;;;;;15.60;14.10;;;24.80;99.90;;;;;;5055426;28;20461;-79
2021/07/26 09:41:54;;;;;;;14.03;12.70;;;24.90;99.90;;;;;;5055443;28;20517;-79
2021/07/26 09:44:23;;;;;;;18.57;16.77;;;24.90;99.90;;;;;;5042889;28;20801;-81
2021/07/26 09:46:49;;;;;;;18.67;16.73;;;25.00;99.90;;;;;;5040304;28;20664;-81
2021/07/26 09:49:19;;;;;;;18.67;16.87;;;25.00;99.90;;;;;;5047029;28;20490;-80
2021/07/26 09:52:03;;;;;;;17.73;16.00;;;25.10;99.90;;;;;;5044178;28;20451;-82
2021/07/26 09:54:41;;;;;;;17.50;15.90;;;25.10;99.90;;;;;;5043306;28;20433;-82
2021/07/26 09:57:15;;;;;;;14.47;13.07;;;25.10;99.90;;;;;;5039058;28;20493;-82
2021/07/26 09:59:43;;;;;;;18.63;16.47;;;25.10;99.90;;;;;;5038057;28;20455;-82
2021/07/26 10:02:13;;;;;;;15.13;13.63;;;25.20;99.90;;;;;;5038604;28;20458;-82
2021/07/26 10:04:43;;;;;;;16.17;14.57;;;25.20;99.90;;;;;;5037637;28;20462;-81
2021/07/26 10:07:10;;;;;;;14.63;13.10;;;25.20;99.90;;;;;;5037525;28;20471;-81
2021/07/26 10:09:39;;;;;;;14.27;12.97;;;25.30;99.90;;;;;;5037706;28;20984;-81
2021/07/26 10:12:06;;;;;;;18.63;15.23;;;25.40;99.90;;;;;;5038147;28;20473;-83
2021/07/26 10:14:33;;;;;;;12.10;11.00;;;25.50;99.90;;;;;;5037272;28;20447;-81
2021/07/26 10:17:01;;;;;;;32.93;24.50;;;25.50;99.90;;;;;;5038369;28;20502;-81
2021/07/26 10:19:27;;;;;;;14.43;13.13;;;25.50;99.90;;;;;;5038664;28;20454;-83
2021/07/26 10:21:57;;;;;;;17.23;14.63;;;25.60;99.90;;;;;;5038578;28;20489;-82
2021/07/26 10:24:30;;;;;;;13.60;11.80;;;25.50;99.90;;;;;;5037282;28;20469;-82
2021/07/26 10:26:58;;;;;;;13.67;12.37;;;25.60;99.90;;;;;;5037762;28;20476;-80
2021/07/26 10:29:52;;;;;;;12.00;9.47;;;25.70;99.90;;;;;;5038311;28;20490;-81
2021/07/26 10:32:36;;;;;;;12.13;10.93;;;25.80;99.90;;;;;;5038987;28;20422;-81
2021/07/26 10:35:04;;;;;;;11.00;9.90;;;25.80;99.90;;;;;;5041451;28;20446;-81
2021/07/26 10:37:50;;;;;;;11.80;10.60;;;26.00;99.90;;;;;;5039964;28;20993;-81
2021/07/26 10:40:19;;;;;;;10.97;9.77;;;25.90;99.90;;;;;;5040637;28;20443;-81
2021/07/26 10:42:45;;;;;;;14.40;13.10;;;26.00;99.90;;;;;;5041068;28;20447;-82
2021/07/26 10:45:32;;;;;;;12.40;11.10;;;25.90;99.90;;;;;;5041562;28;20474;-82
2021/07/26 10:48:32;;;;;;;10.83;9.60;;;26.20;99.90;;;;;;5039953;28;20466;-82
2021/07/26 10:51:00;;;;;;;10.90;9.90;;;26.10;99.90;;;;;;5048093;28;20486;-82
2021/07/26 10:53:59;;;;;;;10.47;9.57;;;26.10;99.90;;;;;;5042060;28;20446;-82
2021/07/26 10:56:25;;;;;;;13.00;11.70;;;26.20;99.90;;;;;;5042601;28;20470;-82
2021/07/26 10:59:03;;;;;;;12.27;11.07;;;26.20;99.90;;;;;;5051528;28;20427;-81
2021/07/26 11:02:01;;;;;;;13.10;11.60;;;26.30;99.90;;;;;;5057118;28;20845;-81
2021/07/26 11:04:38;;;;;;;10.77;9.77;;;26.30;99.90;;;;;;5057483;28;20463;-82
2021/07/26 11:07:12;;;;;;;12.07;10.77;;;26.40;99.90;;;;;;5050340;28;20470;-82
2021/07/26 11:09:42;;;;;;;12.50;11.30;;;26.30;99.90;;;;;;5042263;28;20569;-82
2021/07/26 11:12:09;;;;;;;12.93;11.60;;;26.30;99.90;;;;;;5043419;28;20473;-82
2021/07/26 11:14:36;;;;;;;13.70;12.30;;;26.40;99.90;;;;;;5041753;28;20447;-83
2021/07/26 11:17:04;;;;;;;11.77;10.60;;;26.40;99.90;;;;;;5041092;28;20467;-80
2021/07/26 11:19:36;;;;;;;11.13;10.13;;;26.50;99.90;;;;;;5042104;28;20447;-82
2021/07/26 11:22:05;;;;;;;11.83;10.73;;;26.40;99.90;;;;;;5043538;28;20442;-82
2021/07/26 11:24:46;;;;;;;10.70;9.70;;;26.60;99.90;;;;;;5043433;28;20451;-82
2021/07/26 11:27:15;;;;;;;12.13;11.03;;;26.60;99.90;;;;;;5044052;28;20589;-82
2021/07/26 11:29:44;;;;;;;11.87;10.67;;;26.70;99.90;;;;;;5042195;28;20536;-81
2021/07/26 11:32:15;;;;;;;29.87;22.63;;;26.90;99.90;;;;;;5041264;28;20450;-83
2021/07/26 11:34:44;;;;;;;12.70;9.63;;;26.90;99.90;;;;;;5042468;28;20428;-84
2021/07/26 11:37:13;;;;;;;19.37;16.43;;;27.10;99.90;;;;;;5042927;28;20495;-82
2021/07/26 11:39:46;;;;;;;20.47;17.93;;;27.10;99.90;;;;;;5044703;28;20553;-81
2021/07/26 11:42:13;;;;;;;14.40;12.37;;;27.10;99.90;;;;;;5040332;28;20454;-81
2021/07/26 11:44:40;;;;;;;12.53;11.33;;;27.10;99.90;;;;;;5039701;28;20461;-81
2021/07/26 11:47:07;;;;;;;21.63;14.77;;;27.10;99.90;;;;;;5040016;28;20470;-81
2021/07/26 11:49:34;;;;;;;26.60;23.70;;;27.20;99.90;;;;;;5040172;28;20447;-81
2021/07/26 11:52:08;;;;;;;28.60;22.65;;;27.00;99.90;;;;;;5042359;28;20975;-81
2021/07/26 11:54:36;;;;;;;15.30;13.37;;;27.20;99.90;;;;;;5051069;28;20208;-81
2021/07/26 11:57:08;;;;;;;18.00;16.00;;;27.20;99.90;;;;;;5054696;28;20501;-82
2021/07/26 11:59:35;;;;;;;11.40;10.30;;;27.10;99.90;;;;;;5052757;28;20432;-81
2021/07/26 12:02:06;;;;;;;20.73;16.30;;;26.80;99.90;;;;;;5046657;28;20442;-82
2021/07/26 12:04:34;;;;;;;11.67;10.47;;;26.90;99.90;;;;;;5041595;28;20435;-81
2021/07/26 12:07:02;;;;;;;8.97;8.17;;;26.80;99.90;;;;;;5041855;28;20486;-81
2021/07/26 12:09:29;;;;;;;10.40;9.50;;;26.80;99.90;;;;;;5040486;28;20489;-80
2021/07/26 12:12:07;;;;;;;9.77;8.87;;;26.70;99.90;;;;;;5041818;28;20478;-81
2021/07/26 12:14:38;;;;;;;10.70;8.03;;;26.70;99.90;;;;;;5041056;28;20439;-81
2021/07/26 12:17:07;;;;;;;8.77;7.97;;;26.20;99.90;;;;;;5040979;28;20517;-82
2021/07/26 12:19:36;;;;;;;10.85;9.80;;;26.40;99.90;;;;;;5043562;28;20446;-82
2021/07/26 12:22:20;;;;;;;16.90;14.80;;;26.30;99.90;;;;;;5044241;28;20208;-81
2021/07/26 12:24:59;;;;;;;14.13;12.73;;;26.30;99.90;;;;;;5042013;28;20431;-81
2021/07/26 12:27:31;;;;;;;8.30;7.53;;;26.30;99.90;;;;;;5053020;28;20534;-80
2021/07/26 12:30:01;;;;;;;9.30;8.50;;;26.40;99.90;;;;;;5056539;28;20562;-82
2021/07/26 12:32:28;;;;;;;9.50;8.40;;;26.90;99.90;;;;;;5045705;28;20447;-83
2021/07/26 12:35:12;;;;;;;9.80;8.20;;;27.10;99.90;;;;;;5044140;28;20451;-81